Time;durP1;ratioP1;P1;durP2;ratioP2;P2;SDS_P1;SDS_P2;PMS_P1;PMS_P2;Temp;Humidity;BMP_temperature;BMP_pressure;BME280_temperature;BME280_humidity;BME280_pressure;Samples;Min_cycle;Max_cycle;Signal;HPM_P1;HPM_P2
2023/02/23 00:01:56;;;;;;;;;;;;;;;8.20;100.00;101268.44;5090176;28;20097;-36
2023/02/23 00:04:23;;;;;;;53.05;37.03;;;;;;;8.10;100.00;101265.28;5090673;28;19911;-37
2023/02/23 00:06:52;;;;;;;59.13;40.78;;;;;;;8.11;100.00;101265.09;5090263;28;20531;-36
2023/02/23 00:09:23;;;;;;;57.80;41.08;;;;;;;7.97;100.00;101248.09;5090552;28;20065;-37
2023/02/23 00:11:56;;;;;;;59.00;40.60;;;;;;;8.02;100.00;101254.72;5090252;28;20110;-36
2023/02/23 00:14:29;;;;;;;59.35;40.03;;;;;;;8.08;100.00;101270.06;5076331;28;20111;-37
2023/02/23 00:16:55;;;;;;;55.13;38.78;;;;;;;8.08;100.00;101261.97;5076614;28;20024;-37
2023/02/23 00:19:23;;;;;;;54.08;39.10;;;;;;;8.08;100.00;101268.19;5076283;28;20043;-37
2023/02/23 00:21:49;;;;;;;54.72;39.97;;;;;;;8.08;100.00;101265.50;5075829;28;20452;-37
2023/02/23 00:24:18;;;;;;;55.70;39.70;;;;;;;7.93;100.00;101244.13;5077065;28;20020;-37
2023/02/23 00:26:44;;;;;;;55.97;39.70;;;;;;;8.08;100.00;101267.38;5076152;28;20107;-37
2023/02/23 00:29:16;;;;;;;55.45;38.90;;;;;;;8.07;100.00;101261.16;5076719;28;20028;-36
2023/02/23 00:31:43;;;;;;;54.90;40.58;;;;;;;8.03;100.00;101265.28;5075996;28;20056;-37
2023/02/23 00:34:10;;;;;;;51.20;38.15;;;;;;;8.04;100.00;101266.13;5076613;28;20463;-37
2023/02/23 00:36:35;;;;;;;53.47;38.70;;;;;;;8.03;100.00;101262.59;5076265;28;20016;-37
2023/02/23 00:39:10;;;;;;;55.50;39.80;;;;;;;8.03;100.00;101261.75;5076531;28;20513;-37
2023/02/23 00:41:36;;;;;;;50.88;37.05;;;;;;;7.99;100.00;101259.47;5076168;28;20025;-37
2023/02/23 00:44:01;;;;;;;53.13;37.97;;;;;;;8.02;100.00;101255.56;5076198;28;20042;-36
2023/02/23 00:46:29;;;;;;;51.53;37.50;;;;;;;7.89;100.00;101245.56;5075204;28;20073;-36
2023/02/23 00:48:57;;;;;;;56.03;37.90;;;;;;;7.95;100.00;101255.56;5075737;28;20461;-36
2023/02/23 00:51:26;;;;;;;52.10;38.40;;;;;;;7.89;100.00;101248.25;5075730;28;20029;-36
2023/02/23 00:53:55;;;;;;;52.20;37.60;;;;;;;7.89;100.00;101250.13;5075941;28;20405;-36
2023/02/23 00:56:20;;;;;;;49.08;36.08;;;;;;;7.93;100.00;101251.38;5075621;28;20025;-37
2023/02/23 00:58:46;;;;;;;54.17;36.83;;;;;;;7.87;100.00;101255.72;5076088;28;20023;-36
2023/02/23 01:01:12;;;;;;;49.93;35.37;;;;;;;7.78;100.00;101243.47;5076321;28;20278;-37
2023/02/23 01:03:40;;;;;;;49.15;36.78;;;;;;;7.79;100.00;101250.50;5076077;28;20024;-36
2023/02/23 01:06:08;;;;;;;52.53;38.28;;;;;;;7.85;100.00;101259.63;5075433;28;20028;-37
2023/02/23 01:08:35;;;;;;;53.53;38.97;;;;;;;7.82;100.00;101263.59;5074398;28;20024;-36
2023/02/23 01:11:13;;;;;;;49.47;37.38;;;;;;;7.79;100.00;101261.28;5075321;28;20028;-36
2023/02/23 01:13:40;;;;;;;49.75;36.97;;;;;;;7.77;100.00;101260.66;5075304;28;20465;-37
2023/02/23 01:16:07;;;;;;;53.50;38.85;;;;;;;7.75;100.00;101260.03;5075302;28;20056;-37
2023/02/23 01:18:34;;;;;;;47.90;35.13;;;;;;;7.74;100.00;101259.19;5075204;28;20345;-37
2023/02/23 01:21:00;;;;;;;49.67;36.65;;;;;;;7.72;100.00;101257.75;5074798;28;20050;-37
2023/02/23 01:23:26;;;;;;;53.40;36.70;;;;;;;7.74;100.00;101252.97;5074829;28;20051;-36
2023/02/23 01:25:51;;;;;;;52.05;36.72;;;;;;;7.71;100.00;101259.63;5073778;28;20405;-36
2023/02/23 01:28:16;;;;;;;49.80;36.03;;;;;;;7.70;100.00;101263.31;5075059;28;20021;-36
2023/02/23 01:30:42;;;;;;;49.37;35.80;;;;;;;7.68;100.00;101264.56;5075505;28;20266;-36
2023/02/23 01:33:08;;;;;;;46.83;35.03;;;;;;;7.61;100.00;101248.41;5074630;28;20024;-37
2023/02/23 01:35:34;;;;;;;48.72;34.75;;;;;;;7.68;100.00;101265.41;5075135;28;20243;-37
2023/02/23 01:37:59;;;;;;;48.25;35.15;;;;;;;7.69;100.00;101272.44;5074445;28;20070;-37
2023/02/23 01:40:29;;;;;;;48.37;36.10;;;;;;;7.70;100.00;101268.69;5074796;28;20045;-36
2023/02/23 01:43:10;;;;;;;49.13;35.28;;;;;;;7.69;100.00;101267.06;5075127;28;20445;-37
2023/02/23 01:45:39;;;;;;;49.28;36.10;;;;;;;7.59;100.00;101255.00;5075226;28;20028;-37
2023/02/23 01:48:17;;;;;;;51.45;37.03;;;;;;;7.67;100.00;101271.00;5074254;28;20031;-36
2023/02/23 01:50:54;;;;;;;47.53;35.28;;;;;;;7.60;100.00;101260.19;5074302;28;20147;-37
2023/02/23 01:53:21;;;;;;;;;;;;;;;7.75;100.00;101278.88;5074569;28;20035;-37
2023/02/23 01:55:54;;;;;;;49.97;34.67;;;;;;;7.65;100.00;101283.81;5075021;28;19915;-37
2023/02/23 01:58:22;;;;;;;47.45;34.55;;;;;;;7.58;100.00;101275.72;5075254;28;20070;-36
2023/02/23 02:01:06;;;;;;;52.10;36.53;;;;;;;7.63;100.00;101283.19;5074373;28;20058;-37
2023/02/23 02:03:40;;;;;;;52.30;36.10;;;;;;;7.61;100.00;101279.84;5074579;28;20031;-37
2023/02/23 02:06:08;;;;;;;53.40;36.95;;;;;;;7.56;100.00;101282.31;5075068;28;20058;-36
2023/02/23 02:08:43;;;;;;;51.03;35.58;;;;;;;7.57;100.00;101278.63;5073845;28;20583;-37
2023/02/23 02:11:24;;;;;;;53.40;37.88;;;;;;;7.53;100.00;101283.56;5074486;28;20024;-37
2023/02/23 02:13:54;;;;;;;50.50;35.60;;;;;;;7.57;100.00;101282.13;5074388;28;20029;-37
2023/02/23 02:16:27;;;;;;;52.50;37.28;;;;;;;7.56;100.00;101277.75;5074648;28;20025;-36
2023/02/23 02:19:15;;;;;;;49.80;34.45;;;;;;;7.53;100.00;101267.41;5074327;28;20025;-36
2023/02/23 02:22:19;;;;;;;49.55;35.00;;;;;;;7.59;100.00;101273.84;5074211;28;20033;-37
2023/02/23 02:25:01;;;;;;;53.22;36.58;;;;;;;7.57;100.00;101273.22;5065447;28;20107;-36
2023/02/23 02:27:42;;;;;;;51.10;35.42;;;;;;;7.52;100.00;101270.31;5074246;28;20032;-37
2023/02/23 02:30:28;;;;;;;51.63;35.90;;;;;;;7.57;100.00;101279.44;5074465;28;20052;-42
2023/02/23 02:33:12;;;;;;;51.60;36.20;;;;;;;7.55;100.00;101270.72;5074110;28;20367;-37
2023/02/23 02:36:02;;;;;;;50.80;36.38;;;;;;;7.56;100.00;101267.00;5073667;28;20024;-37
2023/02/23 02:38:55;;;;;;;51.88;35.42;;;;;;;7.55;100.00;101270.72;5074390;28;20031;-37
2023/02/23 02:41:52;;;;;;;50.25;35.15;;;;;;;7.56;100.00;101276.94;5073409;28;20502;-37
2023/02/23 02:44:36;;;;;;;52.03;37.17;;;;;;;7.52;100.00;101267.63;5074450;28;20114;-36
2023/02/23 02:47:07;;;;;;;53.58;37.08;;;;;;;7.47;100.00;101274.44;5073693;28;20066;-36
2023/02/23 02:49:48;;;;;;;52.38;37.30;;;;;;;7.45;100.00;101267.56;5073990;28;20103;-37
2023/02/23 02:52:24;;;;;;;48.55;34.45;;;;;;;7.49;100.00;101277.75;5073656;28;20025;-36
2023/02/23 02:54:52;;;;;;;50.92;36.25;;;;;;;7.47;100.00;101274.44;5073667;28;20024;-36
2023/02/23 02:57:23;;;;;;;51.70;36.05;;;;;;;7.47;100.00;101277.13;5073532;28;20027;-36
2023/02/23 04:17:58;;;;;;;54.70;38.65;;;;;;;7.21;100.00;101301.16;5076687;28;20077;-36
2023/02/23 04:20:24;;;;;;;54.92;38.08;;;;;;;7.22;100.00;101309.06;5076954;28;20029;-36
2023/02/23 04:22:50;;;;;;;59.08;39.58;;;;;;;7.21;100.00;101303.88;5076155;28;20023;-36
2023/02/23 04:25:21;;;;;;;50.90;35.75;;;;;;;7.25;100.00;101317.75;5076306;28;20090;-36
2023/02/23 04:27:47;;;;;;;57.40;39.03;;;;;;;7.23;100.00;101315.28;5076174;28;20024;-36
2023/02/23 04:30:13;;;;;;;57.60;38.42;;;;;;;7.22;100.00;101314.44;5076685;28;20024;-36
2023/02/23 04:32:38;;;;;;;59.97;40.40;;;;;;;7.13;100.00;101306.72;5076037;28;20444;-36
2023/02/23 04:35:04;;;;;;;54.10;37.67;;;;;;;7.25;100.00;101310.50;5076600;28;20024;-36
2023/02/23 04:37:29;;;;;;;54.40;38.22;;;;;;;7.23;100.00;101318.78;5076743;28;20437;-36
2023/02/23 04:39:54;;;;;;;53.40;36.17;;;;;;;7.25;100.00;101317.75;5075732;28;20024;-35
2023/02/23 04:42:20;;;;;;;52.93;37.23;;;;;;;7.22;100.00;101322.50;5075585;28;20028;-36
2023/02/23 04:44:45;;;;;;;57.93;38.80;;;;;;;7.08;100.00;101301.94;5075915;28;20016;-36
2023/02/23 04:47:13;;;;;;;52.95;37.03;;;;;;;7.23;100.00;101324.16;5075754;28;20725;-37
2023/02/23 04:49:38;;;;;;;54.35;37.78;;;;;;;7.18;100.00;101323.94;5075761;28;20020;-36
2023/02/23 04:52:04;;;;;;;52.60;36.70;;;;;;;7.14;100.00;101311.06;5075387;28;20031;-36
2023/02/23 04:54:29;;;;;;;51.92;36.80;;;;;;;7.13;100.00;101314.78;5075991;28;20016;-36
2023/02/23 04:56:55;;;;;;;54.80;37.53;;;;;;;7.18;100.00;101326.63;5075975;28;20048;-36
2023/02/23 04:59:20;;;;;;;57.43;37.83;;;;;;;7.17;100.00;101332.19;5075493;28;20024;-37
2023/02/23 05:01:45;;;;;;;55.87;37.60;;;;;;;7.12;100.00;101324.69;5075695;28;20072;-37
2023/02/23 05:04:11;;;;;;;54.20;35.33;;;;;;;7.15;100.00;101323.50;5075316;28;20032;-37
2023/02/23 05:06:36;;;;;;;56.40;38.23;;;;;;;7.06;100.00;101311.22;5075800;28;20436;-36
2023/02/23 05:09:02;;;;;;;51.75;36.83;;;;;;;7.15;100.00;101323.50;5075799;28;20412;-36
2023/02/23 05:11:28;;;;;;;52.80;36.38;;;;;;;7.15;100.00;101334.25;5075307;28;20452;-36
2023/02/23 05:13:54;;;;;;;52.03;34.83;;;;;;;7.16;100.00;101334.03;5076123;28;20035;-36
2023/02/23 05:16:20;;;;;;;53.60;36.70;;;;;;;7.16;100.00;101334.03;5076103;28;20457;-36
2023/02/23 05:18:45;;;;;;;53.63;35.88;;;;;;;7.13;100.00;101330.94;5075496;28;20083;-36
2023/02/23 05:21:10;;;;;;;54.03;37.40;;;;;;;7.14;100.00;101335.28;5075502;28;20407;-36
2023/02/23 05:23:37;;;;;;;47.03;33.33;;;;;;;6.99;100.00;101311.19;5075944;28;20267;-37
2023/02/23 05:26:04;;;;;;;;;;;;;;;7.21;100.00;101338.84;5075851;28;20074;-36
2023/02/23 05:28:30;;;;;;;51.08;33.90;;;;;;;7.15;100.00;101332.38;5074971;28;19916;-36
2023/02/23 05:30:55;;;;;;;48.38;33.38;;;;;;;7.13;100.00;101336.31;5074975;28;20020;-36
2023/02/23 05:33:21;;;;;;;54.17;36.43;;;;;;;7.13;100.00;101337.13;5074906;28;20017;-36
2023/02/23 05:35:47;;;;;;;51.90;35.13;;;;;;;7.14;100.00;101332.59;5074601;28;20025;-36
2023/02/23 05:38:12;;;;;;;;;;;;;;;7.19;100.00;101328.28;5075511;28;20020;-36
2023/02/23 05:40:38;;;;;;;53.65;35.65;;;;;;;7.14;100.00;101337.97;5074512;28;20313;-37
2023/02/23 05:43:04;;;;;;;52.42;36.35;;;;;;;6.93;100.00;101307.41;5074872;28;20020;-37
2023/02/23 05:45:29;;;;;;;50.22;35.13;;;;;;;7.05;100.00;101318.44;5074748;28;20037;-37
2023/02/23 05:47:55;;;;;;;52.23;34.87;;;;;;;7.13;100.00;101339.00;5074706;28;20372;-38
2023/02/23 05:50:20;;;;;;;51.58;35.83;;;;;;;7.07;100.00;101329.00;5074386;28;20016;-36
2023/02/23 05:52:46;;;;;;;44.40;31.67;;;;;;;7.12;100.00;101334.63;5073539;28;20036;-35
2023/02/23 05:55:11;;;;;;;53.57;35.33;;;;;;;7.13;100.00;101339.00;5074208;28;20028;-36
2023/02/23 05:57:38;;;;;;;50.28;34.88;;;;;;;7.06;100.00;101332.72;5074422;28;20175;-36
2023/02/23 06:00:05;;;;;;;51.53;35.17;;;;;;;7.11;100.00;101344.56;5074381;28;20070;-36
2023/02/23 06:02:31;;;;;;;53.97;35.60;;;;;;;7.10;100.00;101353.66;5074129;28;20048;-36
2023/02/23 06:04:57;;;;;;;48.63;35.90;;;;;;;7.10;100.00;101344.75;5074675;28;20067;-37
2023/02/23 06:07:22;;;;;;;49.00;33.87;;;;;;;7.10;100.00;101352.81;5073873;28;20345;-36
2023/02/23 06:09:47;;;;;;;53.17;36.33;;;;;;;7.08;100.00;101353.03;5074620;28;20112;-36
2023/02/23 06:12:13;;;;;;;54.17;36.33;;;;;;;6.96;100.00;101336.59;5073624;28;20064;-36
2023/02/23 06:14:38;;;;;;;49.87;36.07;;;;;;;7.08;100.00;101355.72;5074181;28;20024;-36
2023/02/23 06:17:04;;;;;;;53.40;34.43;;;;;;;7.12;100.00;101361.53;5074390;28;20452;-36
2023/02/23 06:19:30;;;;;;;55.00;35.83;;;;;;;7.08;100.00;101366.47;5073898;28;20634;-36
2023/02/23 06:21:56;;;;;;;51.30;36.03;;;;;;;7.08;100.00;101366.47;5073983;28;20024;-36
2023/02/23 06:24:22;;;;;;;55.33;36.70;;;;;;;7.01;100.00;101364.75;5073795;28;20487;-36
2023/02/23 06:26:48;;;;;;;48.97;35.63;;;;;;;7.01;100.00;101354.00;5073705;28;20029;-36
2023/02/23 06:29:13;;;;;;;49.73;36.03;;;;;;;7.03;100.00;101368.94;5074272;28;20044;-36
2023/02/23 06:31:38;;;;;;;45.67;33.33;;;;;;;7.09;100.00;101378.91;5073545;28;20384;-36
2023/02/23 06:34:04;;;;;;;49.33;34.10;;;;;;;7.06;100.00;101381.13;5074681;28;20305;-36
2023/02/23 06:36:29;;;;;;;51.83;35.23;;;;;;;6.81;100.00;101349.28;5074158;28;20460;-36
2023/02/23 06:38:56;;;;;;;49.45;34.30;;;;;;;7.03;100.00;101395.81;5073811;28;20425;-35
2023/02/23 06:41:22;;;;;;;49.33;33.03;;;;;;;7.02;100.00;101393.31;5073671;28;20021;-36
2023/02/23 06:43:48;;;;;;;51.22;34.63;;;;;;;7.03;100.00;101385.06;5074531;28;20112;-36
2023/02/23 06:46:13;;;;;;;47.13;32.60;;;;;;;6.99;100.00;101383.78;5073710;28;20032;-36
2023/02/23 06:48:40;;;;;;;46.73;32.97;;;;;;;7.03;100.00;101394.97;5073676;28;20024;-36
2023/02/23 06:51:05;;;;;;;49.33;33.78;;;;;;;7.00;100.00;101390.00;5073939;28;20028;-36
2023/02/23 06:53:32;;;;;;;47.45;33.80;;;;;;;7.02;100.00;101393.31;5073656;28;20399;-36
2023/02/23 06:55:57;;;;;;;50.22;33.53;;;;;;;6.99;100.00;101397.22;5074459;28;20021;-36
2023/02/23 06:58:23;;;;;;;49.25;34.47;;;;;;;6.96;100.00;101397.59;5073595;28;20021;-36
2023/02/23 07:00:48;;;;;;;54.33;35.97;;;;;;;7.05;100.00;101398.31;5073828;28;20387;-36
2023/02/23 07:03:14;;;;;;;50.00;34.87;;;;;;;7.03;100.00;101405.72;5074059;28;20481;-36
2023/02/23 07:05:39;;;;;;;48.72;34.22;;;;;;;7.02;100.00;101404.88;5073598;28;20032;-36
2023/02/23 07:08:05;;;;;;;48.43;33.40;;;;;;;7.03;100.00;101403.03;5072561;28;20024;-35
2023/02/23 07:10:31;;;;;;;48.72;34.38;;;;;;;6.96;100.00;101392.22;5073805;28;20259;-36
2023/02/23 07:12:58;;;;;;;46.97;32.40;;;;;;;6.93;100.00;101398.84;5073404;28;20027;-36
2023/02/23 07:15:24;;;;;;;49.13;34.53;;;;;;;7.04;100.00;101410.09;5073415;28;20074;-36
2023/02/23 07:17:51;;;;;;;47.20;33.75;;;;;;;7.00;100.00;101416.88;5074249;28;20029;-36
2023/02/23 07:20:17;;;;;;;47.75;32.60;;;;;;;7.01;100.00;101419.34;5073945;28;20021;-36
2023/02/23 07:22:43;;;;;;;52.45;34.65;;;;;;;6.97;100.00;101424.28;5073725;28;20475;-35
2023/02/23 07:25:09;;;;;;;47.88;33.97;;;;;;;7.01;100.00;101430.13;5077218;28;20032;-36
2023/02/23 07:27:34;;;;;;;53.20;34.80;;;;;;;6.98;100.00;101425.16;5078131;28;20108;-37
2023/02/23 07:30:01;;;;;;;47.92;33.38;;;;;;;6.99;100.00;101434.03;5077339;28;20119;-36
2023/02/23 07:32:27;;;;;;;55.10;35.15;;;;;;;7.02;100.00;101442.53;5076858;28;20078;-36
2023/02/23 07:34:52;;;;;;;55.90;36.40;;;;;;;7.04;100.00;101437.81;5077489;28;20025;-36
2023/02/23 07:37:18;;;;;;;53.43;36.27;;;;;;;7.09;100.00;101442.59;5076462;28;20023;-36
2023/02/23 07:39:43;;;;;;;55.50;35.43;;;;;;;7.01;100.00;101432.81;5077092;28;20024;-36
2023/02/23 07:42:08;;;;;;;54.20;36.97;;;;;;;7.10;100.00;101445.09;5076984;28;20020;-36
2023/02/23 07:44:34;;;;;;;48.47;34.23;;;;;;;7.09;100.00;101448.00;5077102;28;20251;-36
2023/02/23 07:46:59;;;;;;;48.60;34.45;;;;;;;7.03;100.00;101441.53;5077469;28;20028;-36
2023/02/23 07:49:25;;;;;;;53.23;34.80;;;;;;;7.07;100.00;101450.84;5077031;28;20059;-36
2023/02/23 07:51:50;;;;;;;55.03;37.25;;;;;;;7.13;100.00;101460.03;5076875;28;20376;-36
2023/02/23 07:54:16;;;;;;;52.73;35.90;;;;;;;7.12;100.00;101467.25;5077153;28;20025;-36
2023/02/23 07:56:42;;;;;;;51.83;35.70;;;;;;;7.16;100.00;101475.75;5076764;28;20398;-36
2023/02/23 07:59:07;;;;;;;54.95;35.35;;;;;;;7.17;100.00;101477.41;5077312;28;20021;-36
2023/02/23 08:01:33;;;;;;;52.90;35.27;;;;;;;7.18;100.00;101481.81;5076579;28;20412;-36
2023/02/23 08:03:58;;;;;;;53.35;36.08;;;;;;;7.19;100.00;101486.97;5077255;28;20044;-36
2023/02/23 08:06:23;;;;;;;57.47;37.33;;;;;;;7.21;100.00;101486.78;5076912;28;20036;-36
2023/02/23 08:08:49;;;;;;;57.50;37.27;;;;;;;7.23;100.00;101490.94;5076267;28;20028;-36
2023/02/23 08:11:14;;;;;;;51.17;36.42;;;;;;;7.25;100.00;101485.38;5076348;28;20027;-36
2023/02/23 08:13:40;;;;;;;54.30;35.97;;;;;;;7.26;100.00;101497.78;5076168;28;20044;-36
2023/02/23 08:16:06;;;;;;;55.00;36.03;;;;;;;7.23;100.00;101496.31;5076486;28;20042;-36
2023/02/23 08:18:31;;;;;;;56.75;35.95;;;;;;;7.22;100.00;101486.59;5077206;28;20471;-37
2023/02/23 08:21:01;;;;;;;54.28;36.22;;;;;;;7.28;100.00;101506.50;5076082;28;20495;-37
2023/02/23 08:23:29;;;;;;;52.20;35.30;;;;;;;7.22;100.00;101497.38;5076341;28;20376;-36
2023/02/23 08:25:54;;;;;;;48.90;33.67;;;;;;;7.29;100.00;101500.09;5076258;28;20033;-37
2023/02/23 08:28:20;;;;;;;52.47;35.23;;;;;;;7.31;100.00;101510.66;5076245;28;20074;-36
2023/02/23 08:30:45;;;;;;;53.08;35.55;;;;;;;7.29;100.00;101512.72;5076200;28;20020;-36
2023/02/23 08:33:11;;;;;;;54.47;35.97;;;;;;;7.30;100.00;101509.84;5076005;28;20367;-36
2023/02/23 08:35:36;;;;;;;51.83;35.03;;;;;;;7.34;100.00;101508.44;5076676;28;20052;-36
2023/02/23 08:38:01;;;;;;;53.60;34.10;;;;;;;7.35;100.00;101506.56;5076031;28;20406;-37
2023/02/23 08:40:27;;;;;;;55.23;34.87;;;;;;;7.38;100.00;101509.72;5075746;28;20032;-36
2023/02/23 08:42:52;;;;;;;50.53;33.28;;;;;;;7.44;100.00;101516.16;5075948;28;20021;-36
2023/02/23 08:45:18;;;;;;;50.73;33.47;;;;;;;7.46;100.00;101514.09;5075941;28;20067;-36
2023/02/23 08:47:44;;;;;;;54.17;35.08;;;;;;;7.47;100.00;101505.84;5075892;28;20017;-36
2023/02/23 08:50:10;;;;;;;53.80;34.43;;;;;;;7.48;100.00;101504.81;5076231;28;20039;-36
2023/02/23 08:52:36;;;;;;;49.40;33.55;;;;;;;7.56;100.00;101525.38;5075725;28;20029;-37
2023/02/23 08:55:03;;;;;;;48.20;32.58;;;;;;;7.59;100.00;101519.59;5076621;28;20357;-36
2023/02/23 08:57:28;;;;;;;;;;;;;;;7.71;100.00;101520.75;5076381;28;20024;-35
2023/02/23 08:59:53;;;;;;;46.53;31.08;;;;;;;7.72;100.00;101517.03;5108311;28;19927;-36
2023/02/23 09:02:19;;;;;;;46.93;33.70;;;;;;;7.79;100.00;101517.06;5075087;28;20123;-36
2023/02/23 09:04:45;;;;;;;;;;;;;;;7.87;100.00;101516.09;5076285;28;20082;-41
2023/02/23 09:07:16;;;;;;;47.35;31.08;;;;;;;7.88;100.00;101529.34;5075514;28;19952;-35
2023/02/23 09:09:42;;;;;;;44.85;31.38;;;;;;;7.90;100.00;101526.44;5075453;28;20023;-36
2023/02/23 09:12:07;;;;;;;44.33;31.43;;;;;;;7.90;100.00;101529.97;5075347;28;20100;-35
2023/02/23 09:14:32;;;;;;;50.50;32.50;;;;;;;7.95;100.00;101534.78;5075981;28;20078;-35
2023/02/23 09:16:58;;;;;;;47.93;32.17;;;;;;;7.96;100.00;101545.38;5076111;28;20416;-35
2023/02/23 09:19:25;;;;;;;46.13;32.80;;;;;;;7.94;100.00;101551.97;5075239;28;20108;-36
2023/02/23 09:21:50;;;;;;;44.92;32.60;;;;;;;7.92;100.00;101544.09;5075085;28;20028;-36
2023/02/23 09:24:17;;;;;;;47.03;33.50;;;;;;;7.76;100.00;101536.31;5075207;28;20429;-35
2023/02/23 09:26:43;;;;;;;47.83;32.45;;;;;;;7.81;100.00;101550.03;5075058;28;20364;-36
2023/02/23 09:29:08;;;;;;;48.42;33.30;;;;;;;7.72;100.00;101543.13;5075358;28;20040;-36
2023/02/23 09:31:34;;;;;;;46.95;33.25;;;;;;;7.77;100.00;101550.59;5074984;28;20020;-36
2023/02/23 09:34:00;;;;;;;44.40;32.78;;;;;;;7.72;100.00;101551.19;5075223;28;20025;-36
2023/02/23 09:36:29;;;;;;;43.78;32.45;;;;;;;7.67;100.00;101542.88;5075158;28;20031;-37
2023/02/23 09:38:56;;;;;;;44.90;32.15;;;;;;;7.65;100.00;101544.91;5074494;28;20113;-37
2023/02/23 09:41:32;;;;;;;45.80;31.75;;;;;;;7.72;100.00;101552.03;5075583;28;20032;-36
2023/02/23 09:44:20;;;;;;;44.30;31.85;;;;;;;7.77;100.00;101562.22;5074519;28;20020;-36
2023/02/23 09:47:02;;;;;;;47.40;33.15;;;;;;;7.78;100.00;101563.03;5074443;28;20111;-36
2023/02/23 09:49:30;;;;;;;48.30;33.08;;;;;;;7.71;100.00;101568.34;5074400;28;20530;-36
2023/02/23 09:51:59;;;;;;;45.92;31.75;;;;;;;7.63;100.00;101561.25;5074855;28;20036;-36
2023/02/23 09:54:29;;;;;;;46.80;32.55;;;;;;;7.72;100.00;101572.72;5074491;28;20150;-36
2023/02/23 09:56:57;;;;;;;48.67;34.03;;;;;;;7.73;100.00;101577.09;5074348;28;20368;-36
2023/02/23 09:59:24;;;;;;;49.30;34.45;;;;;;;7.76;100.00;101574.00;5074398;28;20029;-36
2023/02/23 10:02:04;;;;;;;49.13;33.63;;;;;;;7.80;100.00;101569.88;5074192;28;20478;-36
2023/02/23 10:04:36;;;;;;;50.38;34.70;;;;;;;7.74;100.00;101567.97;5073198;28;20045;-37
2023/02/23 10:07:04;;;;;;;49.97;34.17;;;;;;;7.85;100.00;101578.19;5074783;28;20021;-37
2023/02/23 10:09:52;;;;;;;47.45;34.15;;;;;;;7.82;100.00;101559.75;5074234;28;20525;-37
2023/02/23 10:12:49;;;;;;;50.22;35.78;;;;;;;7.94;100.00;101578.91;5074568;28;20479;-37
2023/02/23 10:15:22;;;;;;;47.67;33.72;;;;;;;7.84;100.00;101560.38;5074450;28;20103;-35
2023/02/23 10:18:18;;;;;;;50.90;35.00;;;;;;;7.96;100.00;101577.69;5073824;28;20457;-42
2023/02/23 10:20:57;;;;;;;48.47;34.20;;;;;;;7.96;100.00;101585.78;5074933;28;20056;-36
2023/02/23 10:23:30;;;;;;;50.70;35.47;;;;;;;7.99;100.00;101573.75;5073738;28;20024;-36
2023/02/23 10:25:59;;;;;;;51.83;35.92;;;;;;;8.04;100.00;101579.38;5074302;28;20425;-36
2023/02/23 10:28:27;;;;;;;51.72;37.20;;;;;;;8.07;100.00;101570.91;5073946;28;20028;-36
2023/02/23 10:30:54;;;;;;;50.70;37.13;;;;;;;8.10;100.00;101575.06;5074562;28;20021;-36
2023/02/23 10:33:25;;;;;;;51.42;35.97;;;;;;;8.17;100.00;101579.47;5073888;28;20086;-36
2023/02/23 10:35:56;;;;;;;51.40;36.00;;;;;;;8.19;100.00;101580.09;5074221;28;20024;-36
2023/02/23 10:38:21;;;;;;;51.53;36.15;;;;;;;8.28;100.00;101583.50;5074105;28;20449;-36
2023/02/23 10:40:54;;;;;;;51.37;35.60;;;;;;;8.33;100.00;101586.41;5074758;28;20104;-37
2023/02/23 10:43:20;;;;;;;55.25;38.60;;;;;;;8.37;100.00;101585.03;5073873;28;20498;-37
2023/02/23 10:45:49;;;;;;;55.92;36.42;;;;;;;8.36;100.00;101579.81;5074088;28;20099;-36
2023/02/23 10:48:27;;;;;;;48.38;34.88;;;;;;;8.28;100.00;101572.72;5073770;28;20029;-36
2023/02/23 10:50:59;;;;;;;50.40;35.90;;;;;;;8.33;100.00;101586.41;5074345;28;20411;-37
2023/02/23 10:53:26;;;;;;;49.92;36.30;;;;;;;8.24;100.00;101587.59;5074263;28;20021;-37
2023/02/23 10:56:12;;;;;;;49.35;35.38;;;;;;;8.30;100.00;101594.91;5073513;28;20043;-37
2023/02/23 10:58:45;;;;;;;49.42;35.90;;;;;;;8.25;100.00;101600.91;5073484;28;20016;-37
2023/02/23 11:01:11;;;;;;;51.13;35.88;;;;;;;8.26;100.00;101596.34;5074352;28;20074;-37
2023/02/23 11:03:44;;;;;;;49.17;35.53;;;;;;;8.27;100.00;101595.31;5073591;28;20512;-37
2023/02/23 11:06:29;;;;;;;47.22;35.05;;;;;;;8.28;100.00;101602.34;5074154;28;20036;-37
2023/02/23 11:08:55;;;;;;;46.05;35.10;;;;;;;8.29;100.00;101605.88;5073590;28;20021;-37
2023/02/23 11:11:28;;;;;;;49.10;35.58;;;;;;;8.18;100.00;101591.09;5073826;28;20035;-37
2023/02/23 11:13:55;;;;;;;50.80;36.53;;;;;;;8.30;100.00;101599.47;5073403;28;20111;-36
2023/02/23 11:16:29;;;;;;;49.13;38.03;;;;;;;8.19;100.00;101581.97;5073986;28;20104;-36
2023/02/23 11:18:56;;;;;;;49.17;36.35;;;;;;;8.23;100.00;101596.72;5073750;28;20020;-36
2023/02/23 11:21:28;;;;;;;48.58;36.17;;;;;;;8.12;100.00;101578.41;5074142;28;20020;-37
2023/02/23 11:23:57;;;;;;;45.35;34.58;;;;;;;8.26;100.00;101591.78;5072374;28;20414;-37
2023/02/23 11:26:37;;;;;;;47.17;34.75;;;;;;;8.18;100.00;101564.97;5073390;28;20024;-37
2023/02/23 11:29:13;;;;;;;45.40;33.70;;;;;;;8.38;100.00;101584.00;5073612;28;20028;-37
2023/02/23 11:31:40;;;;;;;45.35;33.03;;;;;;;8.45;100.00;101584.06;5074211;28;20458;-36
2023/02/23 11:34:06;;;;;;;45.53;34.63;;;;;;;8.41;100.00;101567.44;5073005;28;20027;-36
2023/02/23 11:36:33;;;;;;;;;;;;;;;8.64;100.00;101587.88;5073436;28;20095;-36
2023/02/23 11:39:13;;;;;;;37.50;28.90;;;;;;;8.60;100.00;101586.63;5072882;28;20375;-36
2023/02/23 11:41:38;;;;;;;40.90;32.65;;;;;;;8.64;100.00;101586.03;5073120;28;20024;-36
2023/02/23 11:44:04;;;;;;;40.13;31.83;;;;;;;8.67;100.00;101593.69;5073702;28;20028;-37
2023/02/23 11:46:34;;;;;;;40.00;29.85;;;;;;;8.71;100.00;101588.72;5072506;28;20052;-36
2023/02/23 11:49:06;;;;;;;38.28;29.23;;;;;;;8.76;100.00;101588.97;5073211;28;20031;-36
2023/02/23 11:51:35;;;;;;;35.17;26.52;;;;;;;8.74;100.00;101585.66;5073145;28;20043;-36
2023/02/23 11:54:03;;;;;;;34.08;26.42;;;;;;;8.81;100.00;101591.06;5073749;28;20096;-36
2023/02/23 11:56:31;;;;;;;29.58;24.35;;;;;;;8.79;100.00;101595.84;5073112;28;20032;-36
2023/02/23 11:59:07;;;;;;;30.80;24.60;;;;;;;8.82;100.00;101600.81;5073069;28;20376;-36
2023/02/23 12:01:45;;;;;;;32.28;25.70;;;;;;;8.83;100.00;101597.91;5073818;28;20413;-36
2023/02/23 12:04:29;;;;;;;30.17;24.63;;;;;;;8.82;100.00;101593.53;5073618;28;20356;-36
2023/02/23 12:07:42;;;;;;;30.13;24.13;;;;;;;8.81;100.00;101583.78;5073579;28;20028;-36
2023/02/23 12:10:29;;;;;;;29.77;24.42;;;;;;;8.76;100.00;101587.09;5075761;28;20071;-36
2023/02/23 12:13:11;;;;;;;32.95;24.55;;;;;;;8.77;100.00;101585.22;5077428;28;20066;-36
2023/02/23 12:15:52;;;;;;;31.35;25.00;;;;;;;8.79;100.00;101574.25;5076481;28;20479;-36
2023/02/23 12:18:29;;;;;;;30.58;25.20;;;;;;;8.79;100.00;101571.56;5076737;28;20325;-36
2023/02/23 12:20:59;;;;;;;33.92;24.65;;;;;;;8.81;100.00;101562.22;5077172;28;20028;-36
2023/02/23 12:23:31;;;;;;;30.98;23.48;;;;;;;8.87;100.00;101556.00;5076260;28;20021;-36
2023/02/23 12:26:03;;;;;;;30.63;24.40;;;;;;;8.89;100.00;101556.66;5076033;28;20471;-35
2023/02/23 12:28:38;;;;;;;30.67;23.85;;;;;;;8.93;100.00;101567.84;5076365;28;20126;-36
2023/02/23 12:31:29;;;;;;;28.95;23.52;;;;;;;8.94;100.00;101564.16;5076232;28;20063;-36
2023/02/23 12:34:14;;;;;;;28.27;22.58;;;;;;;8.90;100.00;101569.09;5073096;28;20044;-36
2023/02/23 12:36:45;;;;;;;28.77;22.45;;;;;;;8.77;100.00;101561.78;5076136;28;20043;-36
2023/02/23 12:39:29;;;;;;;26.23;21.77;;;;;;;8.83;100.00;101572.81;5076097;28;20016;-36
2023/02/23 12:42:36;;;;;;;25.15;20.83;;;;;;;8.84;100.00;101577.19;5075675;28;20016;-36